Whitworth, United Kingdom
Current Conditions -  °F | °C
As of 6:20 AM on Thursday 23 Oct 2014 (Local Time) from EGCC Reporting Station
Overcast Overcast  
Wind Chill: 11°   Ceiling: 2600
Heat Index: 11°   Visibility: 6mi
Dew Point: 10°   Wind: 9mph
Humidity: 94%   Direction: 190°S
Pressure: 30.03"   Gusts: NA
Location:  53.66°N, 2.18°W
Report Text: EGCC 230520Z 19008KT 9999 SCT020 BKN026 OVC031 11/10 Q1017 NOSIG
Loading
Personal Weather Stations






























Interactive Weather Map
Tropical Storm Tracking
New forecast layout! Learn more

10-Day Weather Forecast

Advertisements
Track Severe Weather on mobile